sensor_id;sensor_type;location;lat;lon;timestamp;P1;durP1;ratioP1;P2;durP2;ratioP2
63286;SDS011;49410;55.708;37.522;2023-02-04T00:00:11;11.32;;;4.55;;
63286;SDS011;49410;55.708;37.522;2023-02-04T00:02:41;13.13;;;5.25;;
63286;SDS011;49410;55.708;37.522;2023-02-04T00:05:07;10.35;;;4.55;;
63286;SDS011;49410;55.708;37.522;2023-02-04T00:07:34;9.65;;;4.40;;
63286;SDS011;49410;55.708;37.522;2023-02-04T00:10:00;13.55;;;5.65;;
63286;SDS011;49410;55.708;37.522;2023-02-04T00:12:26;10.70;;;4.75;;
63286;SDS011;49410;55.708;37.522;2023-02-04T00:14:53;12.82;;;5.60;;
63286;SDS011;49410;55.708;37.522;2023-02-04T00:17:22;11.98;;;6.15;;
63286;SDS011;49410;55.708;37.522;2023-02-04T00:19:47;14.68;;;6.50;;
63286;SDS011;49410;55.708;37.522;2023-02-04T00:22:13;11.40;;;4.78;;
63286;SDS011;49410;55.708;37.522;2023-02-04T00:24:39;12.93;;;6.25;;
63286;SDS011;49410;55.708;37.522;2023-02-04T00:27:07;13.98;;;5.78;;
63286;SDS011;49410;55.708;37.522;2023-02-04T00:29:32;13.77;;;5.57;;
63286;SDS011;49410;55.708;37.522;2023-02-04T00:31:58;13.25;;;6.18;;
63286;SDS011;49410;55.708;37.522;2023-02-04T00:34:24;13.40;;;6.53;;
63286;SDS011;49410;55.708;37.522;2023-02-04T00:36:50;14.43;;;5.35;;
63286;SDS011;49410;55.708;37.522;2023-02-04T00:39:15;11.57;;;5.20;;
63286;SDS011;49410;55.708;37.522;2023-02-04T00:41:41;13.05;;;5.70;;
63286;SDS011;49410;55.708;37.522;2023-02-04T00:44:06;12.80;;;5.70;;
63286;SDS011;49410;55.708;37.522;2023-02-04T00:46:32;13.38;;;5.28;;
63286;SDS011;49410;55.708;37.522;2023-02-04T00:48:57;12.85;;;5.43;;
63286;SDS011;49410;55.708;37.522;2023-02-04T00:51:23;12.43;;;5.32;;
63286;SDS011;49410;55.708;37.522;2023-02-04T00:53:48;11.90;;;5.13;;
63286;SDS011;49410;55.708;37.522;2023-02-04T00:56:14;14.73;;;6.05;;
63286;SDS011;49410;55.708;37.522;2023-02-04T00:58:39;11.95;;;4.90;;
63286;SDS011;49410;55.708;37.522;2023-02-04T01:01:04;11.30;;;5.28;;
63286;SDS011;49410;55.708;37.522;2023-02-04T01:03:30;10.75;;;4.60;;
63286;SDS011;49410;55.708;37.522;2023-02-04T01:05:56;12.27;;;5.00;;
63286;SDS011;49410;55.708;37.522;2023-02-04T01:08:21;9.85;;;4.82;;
63286;SDS011;49410;55.708;37.522;2023-02-04T01:10:47;12.55;;;5.85;;
63286;SDS011;49410;55.708;37.522;2023-02-04T01:13:12;10.35;;;4.55;;
63286;SDS011;49410;55.708;37.522;2023-02-04T01:15:38;11.65;;;4.82;;
63286;SDS011;49410;55.708;37.522;2023-02-04T01:18:03;12.63;;;4.68;;
63286;SDS011;49410;55.708;37.522;2023-02-04T01:20:29;12.32;;;5.00;;
63286;SDS011;49410;55.708;37.522;2023-02-04T01:22:54;10.55;;;4.85;;
63286;SDS011;49410;55.708;37.522;2023-02-04T01:25:20;11.88;;;4.75;;
63286;SDS011;49410;55.708;37.522;2023-02-04T01:27:46;9.82;;;4.43;;
63286;SDS011;49410;55.708;37.522;2023-02-04T01:30:12;10.40;;;4.43;;
63286;SDS011;49410;55.708;37.522;2023-02-04T01:32:39;10.98;;;5.00;;
63286;SDS011;49410;55.708;37.522;2023-02-04T01:35:04;12.73;;;4.85;;
63286;SDS011;49410;55.708;37.522;2023-02-04T01:37:30;11.20;;;4.30;;
63286;SDS011;49410;55.708;37.522;2023-02-04T01:39:56;11.00;;;4.35;;
63286;SDS011;49410;55.708;37.522;2023-02-04T01:42:21;10.27;;;4.82;;
63286;SDS011;49410;55.708;37.522;2023-02-04T01:44:47;9.68;;;4.05;;
63286;SDS011;49410;55.708;37.522;2023-02-04T01:47:12;9.05;;;3.70;;
63286;SDS011;49410;55.708;37.522;2023-02-04T01:49:38;10.93;;;3.90;;
63286;SDS011;49410;55.708;37.522;2023-02-04T01:52:03;10.98;;;4.80;;
63286;SDS011;49410;55.708;37.522;2023-02-04T01:54:29;8.93;;;3.60;;
63286;SDS011;49410;55.708;37.522;2023-02-04T01:56:55;9.35;;;4.15;;
63286;SDS011;49410;55.708;37.522;2023-02-04T01:59:21;10.23;;;4.00;;
63286;SDS011;49410;55.708;37.522;2023-02-04T02:01:49;10.68;;;4.60;;
63286;SDS011;49410;55.708;37.522;2023-02-04T02:04:17;9.80;;;4.38;;
63286;SDS011;49410;55.708;37.522;2023-02-04T02:06:53;11.85;;;4.68;;
63286;SDS011;49410;55.708;37.522;2023-02-04T02:09:22;11.07;;;4.82;;
63286;SDS011;49410;55.708;37.522;2023-02-04T02:11:49;10.05;;;4.53;;
63286;SDS011;49410;55.708;37.522;2023-02-04T02:14:15;8.82;;;3.53;;
63286;SDS011;49410;55.708;37.522;2023-02-04T02:16:41;8.80;;;3.85;;
63286;SDS011;49410;55.708;37.522;2023-02-04T02:19:07;12.75;;;4.93;;
63286;SDS011;49410;55.708;37.522;2023-02-04T02:21:39;12.90;;;4.97;;
63286;SDS011;49410;55.708;37.522;2023-02-04T02:24:24;10.93;;;4.72;;
63286;SDS011;49410;55.708;37.522;2023-02-04T02:26:50;10.32;;;4.88;;
63286;SDS011;49410;55.708;37.522;2023-02-04T02:29:17;11.93;;;4.70;;
63286;SDS011;49410;55.708;37.522;2023-02-04T02:31:43;9.27;;;3.97;;
63286;SDS011;49410;55.708;37.522;2023-02-04T02:34:08;12.15;;;4.13;;
63286;SDS011;49410;55.708;37.522;2023-02-04T02:36:34;11.88;;;4.53;;
63286;SDS011;49410;55.708;37.522;2023-02-04T02:38:59;11.55;;;5.20;;
63286;SDS011;49410;55.708;37.522;2023-02-04T02:41:25;11.30;;;4.63;;
63286;SDS011;49410;55.708;37.522;2023-02-04T02:43:50;11.00;;;4.70;;
63286;SDS011;49410;55.708;37.522;2023-02-04T02:46:16;12.00;;;5.13;;
63286;SDS011;49410;55.708;37.522;2023-02-04T02:48:42;11.68;;;4.63;;
63286;SDS011;49410;55.708;37.522;2023-02-04T02:51:07;11.93;;;5.22;;
63286;SDS011;49410;55.708;37.522;2023-02-04T02:53:33;17.95;;;6.68;;
63286;SDS011;49410;55.708;37.522;2023-02-04T02:55:58;14.23;;;6.70;;
63286;SDS011;49410;55.708;37.522;2023-02-04T02:58:29;15.55;;;7.38;;
63286;SDS011;49410;55.708;37.522;2023-02-04T03:00:57;15.18;;;7.50;;
63286;SDS011;49410;55.708;37.522;2023-02-04T03:03:26;17.90;;;8.00;;
63286;SDS011;49410;55.708;37.522;2023-02-04T03:05:55;16.38;;;7.95;;
63286;SDS011;49410;55.708;37.522;2023-02-04T03:08:24;13.95;;;7.47;;
63286;SDS011;49410;55.708;37.522;2023-02-04T03:10:50;11.13;;;5.57;;
63286;SDS011;49410;55.708;37.522;2023-02-04T03:13:16;12.93;;;6.20;;
63286;SDS011;49410;55.708;37.522;2023-02-04T03:15:43;14.55;;;5.93;;
63286;SDS011;49410;55.708;37.522;2023-02-04T03:18:11;13.15;;;6.57;;
63286;SDS011;49410;55.708;37.522;2023-02-04T03:20:38;12.45;;;5.82;;
63286;SDS011;49410;55.708;37.522;2023-02-04T03:23:05;13.65;;;6.55;;
63286;SDS011;49410;55.708;37.522;2023-02-04T03:25:30;12.90;;;5.38;;
63286;SDS011;49410;55.708;37.522;2023-02-04T03:27:56;12.70;;;5.68;;
63286;SDS011;49410;55.708;37.522;2023-02-04T03:30:23;16.33;;;5.72;;
63286;SDS011;49410;55.708;37.522;2023-02-04T03:32:49;12.23;;;6.43;;
63286;SDS011;49410;55.708;37.522;2023-02-04T03:35:15;14.15;;;6.18;;
63286;SDS011;49410;55.708;37.522;2023-02-04T03:37:40;21.40;;;7.93;;
63286;SDS011;49410;55.708;37.522;2023-02-04T03:40:06;14.20;;;6.43;;
63286;SDS011;49410;55.708;37.522;2023-02-04T03:42:32;12.27;;;6.50;;
63286;SDS011;49410;55.708;37.522;2023-02-04T03:44:58;16.00;;;7.18;;
63286;SDS011;49410;55.708;37.522;2023-02-04T03:47:24;17.90;;;6.95;;
63286;SDS011;49410;55.708;37.522;2023-02-04T03:49:49;19.48;;;7.40;;
63286;SDS011;49410;55.708;37.522;2023-02-04T03:52:15;27.75;;;10.02;;
63286;SDS011;49410;55.708;37.522;2023-02-04T03:54:41;27.70;;;9.55;;
63286;SDS011;49410;55.708;37.522;2023-02-04T03:57:06;12.63;;;5.68;;
63286;SDS011;49410;55.708;37.522;2023-02-04T03:59:31;13.20;;;5.63;;
63286;SDS011;49410;55.708;37.522;2023-02-04T04:01:57;13.68;;;5.30;;
63286;SDS011;49410;55.708;37.522;2023-02-04T04:04:23;12.48;;;5.55;;
63286;SDS011;49410;55.708;37.522;2023-02-04T04:06:48;12.52;;;5.38;;
63286;SDS011;49410;55.708;37.522;2023-02-04T04:09:14;13.27;;;5.50;;
63286;SDS011;49410;55.708;37.522;2023-02-04T04:11:39;12.38;;;5.35;;
63286;SDS011;49410;55.708;37.522;2023-02-04T04:14:05;13.32;;;5.32;;
63286;SDS011;49410;55.708;37.522;2023-02-04T04:16:30;11.38;;;5.32;;
63286;SDS011;49410;55.708;37.522;2023-02-04T04:18:55;13.95;;;6.32;;
63286;SDS011;49410;55.708;37.522;2023-02-04T04:21:21;10.75;;;5.15;;
63286;SDS011;49410;55.708;37.522;2023-02-04T04:23:46;12.77;;;5.20;;
63286;SDS011;49410;55.708;37.522;2023-02-04T04:26:12;13.25;;;5.53;;
63286;SDS011;49410;55.708;37.522;2023-02-04T04:28:37;11.65;;;5.47;;
63286;SDS011;49410;55.708;37.522;2023-02-04T04:31:03;14.30;;;5.15;;
63286;SDS011;49410;55.708;37.522;2023-02-04T04:33:29;13.40;;;6.05;;
63286;SDS011;49410;55.708;37.522;2023-02-04T04:35:54;11.40;;;5.50;;
63286;SDS011;49410;55.708;37.522;2023-02-04T04:38:20;14.27;;;5.07;;
63286;SDS011;49410;55.708;37.522;2023-02-04T04:40:45;11.43;;;4.72;;
63286;SDS011;49410;55.708;37.522;2023-02-04T04:43:11;13.02;;;5.32;;
63286;SDS011;49410;55.708;37.522;2023-02-04T04:45:36;12.40;;;5.30;;
63286;SDS011;49410;55.708;37.522;2023-02-04T04:48:02;10.77;;;5.30;;
63286;SDS011;49410;55.708;37.522;2023-02-04T04:50:27;12.63;;;5.82;;
63286;SDS011;49410;55.708;37.522;2023-02-04T04:52:53;12.23;;;5.25;;
63286;SDS011;49410;55.708;37.522;2023-02-04T04:55:18;11.75;;;5.55;;
63286;SDS011;49410;55.708;37.522;2023-02-04T04:57:44;15.18;;;5.68;;
63286;SDS011;49410;55.708;37.522;2023-02-04T05:00:10;12.98;;;5.70;;
63286;SDS011;49410;55.708;37.522;2023-02-04T05:02:39;13.38;;;5.43;;
63286;SDS011;49410;55.708;37.522;2023-02-04T05:05:05;18.63;;;6.82;;
63286;SDS011;49410;55.708;37.522;2023-02-04T05:07:30;12.30;;;5.13;;
63286;SDS011;49410;55.708;37.522;2023-02-04T05:09:56;12.65;;;5.75;;
63286;SDS011;49410;55.708;37.522;2023-02-04T05:12:21;12.27;;;5.85;;
63286;SDS011;49410;55.708;37.522;2023-02-04T05:14:47;10.45;;;5.00;;
63286;SDS011;49410;55.708;37.522;2023-02-04T05:17:12;17.80;;;5.50;;
63286;SDS011;49410;55.708;37.522;2023-02-04T05:19:38;12.15;;;5.50;;
63286;SDS011;49410;55.708;37.522;2023-02-04T05:22:03;14.32;;;5.28;;
63286;SDS011;49410;55.708;37.522;2023-02-04T05:24:29;14.43;;;6.28;;
63286;SDS011;49410;55.708;37.522;2023-02-04T05:26:54;13.07;;;5.55;;
63286;SDS011;49410;55.708;37.522;2023-02-04T05:29:20;12.75;;;5.47;;
63286;SDS011;49410;55.708;37.522;2023-02-04T05:31:46;13.52;;;6.30;;
63286;SDS011;49410;55.708;37.522;2023-02-04T05:34:11;12.75;;;5.40;;
63286;SDS011;49410;55.708;37.522;2023-02-04T05:36:37;11.32;;;4.97;;
63286;SDS011;49410;55.708;37.522;2023-02-04T05:39:02;13.40;;;5.60;;
63286;SDS011;49410;55.708;37.522;2023-02-04T05:41:28;14.32;;;5.55;;
63286;SDS011;49410;55.708;37.522;2023-02-04T05:43:53;12.55;;;5.47;;
63286;SDS011;49410;55.708;37.522;2023-02-04T05:46:19;13.27;;;5.43;;
63286;SDS011;49410;55.708;37.522;2023-02-04T05:48:44;12.00;;;5.07;;
63286;SDS011;49410;55.708;37.522;2023-02-04T05:51:09;13.35;;;5.28;;
63286;SDS011;49410;55.708;37.522;2023-02-04T05:53:35;11.75;;;5.28;;
63286;SDS011;49410;55.708;37.522;2023-02-04T05:56:00;12.07;;;5.40;;
63286;SDS011;49410;55.708;37.522;2023-02-04T05:58:26;14.70;;;5.85;;
63286;SDS011;49410;55.708;37.522;2023-02-04T06:00:57;14.40;;;5.82;;
63286;SDS011;49410;55.708;37.522;2023-02-04T06:03:24;15.00;;;6.20;;
63286;SDS011;49410;55.708;37.522;2023-02-04T06:05:49;12.25;;;5.10;;
63286;SDS011;49410;55.708;37.522;2023-02-04T06:08:15;13.57;;;5.78;;
63286;SDS011;49410;55.708;37.522;2023-02-04T06:10:40;10.48;;;4.85;;
63286;SDS011;49410;55.708;37.522;2023-02-04T06:13:06;16.40;;;6.25;;
63286;SDS011;49410;55.708;37.522;2023-02-04T06:15:32;12.02;;;5.70;;
63286;SDS011;49410;55.708;37.522;2023-02-04T06:17:57;15.82;;;5.65;;
63286;SDS011;49410;55.708;37.522;2023-02-04T06:20:23;13.88;;;6.15;;
63286;SDS011;49410;55.708;37.522;2023-02-04T06:22:48;24.60;;;5.70;;
63286;SDS011;49410;55.708;37.522;2023-02-04T06:25:16;12.32;;;5.88;;
63286;SDS011;49410;55.708;37.522;2023-02-04T06:27:42;13.68;;;5.90;;
63286;SDS011;49410;55.708;37.522;2023-02-04T06:30:07;13.68;;;5.65;;
63286;SDS011;49410;55.708;37.522;2023-02-04T06:32:34;14.63;;;6.13;;
63286;SDS011;49410;55.708;37.522;2023-02-04T06:35:00;12.27;;;6.30;;
63286;SDS011;49410;55.708;37.522;2023-02-04T06:37:27;13.07;;;6.32;;
63286;SDS011;49410;55.708;37.522;2023-02-04T06:39:52;13.05;;;5.22;;
63286;SDS011;49410;55.708;37.522;2023-02-04T06:42:19;11.43;;;5.20;;
63286;SDS011;49410;55.708;37.522;2023-02-04T06:44:45;12.98;;;6.10;;
63286;SDS011;49410;55.708;37.522;2023-02-04T06:47:10;14.57;;;5.55;;
63286;SDS011;49410;55.708;37.522;2023-02-04T06:49:36;15.35;;;6.53;;
63286;SDS011;49410;55.708;37.522;2023-02-04T06:52:01;13.23;;;5.15;;
63286;SDS011;49410;55.708;37.522;2023-02-04T06:54:27;14.25;;;5.65;;
63286;SDS011;49410;55.708;37.522;2023-02-04T06:56:52;11.13;;;5.32;;
63286;SDS011;49410;55.708;37.522;2023-02-04T06:59:18;15.50;;;5.85;;
63286;SDS011;49410;55.708;37.522;2023-02-04T07:01:43;19.52;;;5.65;;
63286;SDS011;49410;55.708;37.522;2023-02-04T07:04:09;13.27;;;5.38;;
63286;SDS011;49410;55.708;37.522;2023-02-04T07:06:34;14.43;;;5.55;;
63286;SDS011;49410;55.708;37.522;2023-02-04T07:09:00;13.85;;;6.63;;
63286;SDS011;49410;55.708;37.522;2023-02-04T07:11:25;13.60;;;5.72;;
63286;SDS011;49410;55.708;37.522;2023-02-04T07:13:51;13.23;;;5.53;;
63286;SDS011;49410;55.708;37.522;2023-02-04T07:16:16;13.23;;;5.57;;
63286;SDS011;49410;55.708;37.522;2023-02-04T07:18:42;12.02;;;5.43;;
63286;SDS011;49410;55.708;37.522;2023-02-04T07:21:07;14.25;;;5.95;;
63286;SDS011;49410;55.708;37.522;2023-02-04T07:23:33;21.23;;;6.20;;
63286;SDS011;49410;55.708;37.522;2023-02-04T07:25:58;14.40;;;6.00;;
63286;SDS011;49410;55.708;37.522;2023-02-04T07:28:24;17.55;;;6.25;;
63286;SDS011;49410;55.708;37.522;2023-02-04T07:30:49;14.43;;;5.97;;
63286;SDS011;49410;55.708;37.522;2023-02-04T07:33:15;11.93;;;5.65;;
63286;SDS011;49410;55.708;37.522;2023-02-04T07:35:41;13.15;;;5.88;;
63286;SDS011;49410;55.708;37.522;2023-02-04T07:38:06;14.35;;;6.50;;
63286;SDS011;49410;55.708;37.522;2023-02-04T07:40:33;14.20;;;6.32;;
63286;SDS011;49410;55.708;37.522;2023-02-04T07:42:58;15.27;;;6.97;;
63286;SDS011;49410;55.708;37.522;2023-02-04T07:45:24;13.07;;;5.72;;
63286;SDS011;49410;55.708;37.522;2023-02-04T07:47:49;16.52;;;6.53;;
63286;SDS011;49410;55.708;37.522;2023-02-04T07:50:15;14.43;;;5.80;;
63286;SDS011;49410;55.708;37.522;2023-02-04T07:52:40;16.27;;;6.68;;
63286;SDS011;49410;55.708;37.522;2023-02-04T07:55:06;16.60;;;6.43;;
63286;SDS011;49410;55.708;37.522;2023-02-04T07:57:32;13.45;;;6.32;;
63286;SDS011;49410;55.708;37.522;2023-02-04T07:59:57;15.80;;;6.55;;
63286;SDS011;49410;55.708;37.522;2023-02-04T08:02:23;17.33;;;7.15;;
63286;SDS011;49410;55.708;37.522;2023-02-04T08:04:49;12.77;;;5.95;;
63286;SDS011;49410;55.708;37.522;2023-02-04T08:07:15;14.80;;;6.55;;
63286;SDS011;49410;55.708;37.522;2023-02-04T08:09:40;15.60;;;6.72;;
63286;SDS011;49410;55.708;37.522;2023-02-04T08:12:06;16.85;;;7.13;;
63286;SDS011;49410;55.708;37.522;2023-02-04T08:14:31;18.05;;;7.20;;
63286;SDS011;49410;55.708;37.522;2023-02-04T08:16:57;21.08;;;7.00;;
63286;SDS011;49410;55.708;37.522;2023-02-04T08:19:22;18.13;;;6.63;;
63286;SDS011;49410;55.708;37.522;2023-02-04T08:21:47;14.70;;;6.43;;
63286;SDS011;49410;55.708;37.522;2023-02-04T08:24:13;15.38;;;6.70;;
63286;SDS011;49410;55.708;37.522;2023-02-04T08:26:39;14.30;;;6.20;;
63286;SDS011;49410;55.708;37.522;2023-02-04T08:29:05;15.82;;;7.03;;
63286;SDS011;49410;55.708;37.522;2023-02-04T08:31:31;18.42;;;6.80;;
63286;SDS011;49410;55.708;37.522;2023-02-04T08:33:56;19.13;;;7.75;;
63286;SDS011;49410;55.708;37.522;2023-02-04T08:36:21;17.85;;;6.63;;
63286;SDS011;49410;55.708;37.522;2023-02-04T08:38:47;19.60;;;7.13;;
63286;SDS011;49410;55.708;37.522;2023-02-04T08:41:12;21.27;;;7.25;;
63286;SDS011;49410;55.708;37.522;2023-02-04T08:43:37;17.45;;;8.35;;
63286;SDS011;49410;55.708;37.522;2023-02-04T08:46:03;16.75;;;7.22;;
63286;SDS011;49410;55.708;37.522;2023-02-04T08:48:29;23.30;;;7.65;;
63286;SDS011;49410;55.708;37.522;2023-02-04T08:50:54;22.60;;;8.57;;
63286;SDS011;49410;55.708;37.522;2023-02-04T08:53:19;17.60;;;7.70;;
63286;SDS011;49410;55.708;37.522;2023-02-04T08:55:45;17.67;;;8.32;;
63286;SDS011;49410;55.708;37.522;2023-02-04T08:58:10;17.60;;;7.72;;
63286;SDS011;49410;55.708;37.522;2023-02-04T09:00:35;18.02;;;7.78;;
63286;SDS011;49410;55.708;37.522;2023-02-04T09:03:01;14.38;;;6.78;;
63286;SDS011;49410;55.708;37.522;2023-02-04T09:05:26;16.55;;;7.10;;
63286;SDS011;49410;55.708;37.522;2023-02-04T09:07:51;19.17;;;7.75;;
63286;SDS011;49410;55.708;37.522;2023-02-04T09:10:17;16.58;;;6.55;;
63286;SDS011;49410;55.708;37.522;2023-02-04T09:12:42;18.77;;;6.68;;
63286;SDS011;49410;55.708;37.522;2023-02-04T09:15:08;20.75;;;7.00;;
63286;SDS011;49410;55.708;37.522;2023-02-04T09:17:34;22.42;;;7.40;;
63286;SDS011;49410;55.708;37.522;2023-02-04T09:19:59;18.50;;;6.65;;
63286;SDS011;49410;55.708;37.522;2023-02-04T09:22:25;16.95;;;7.28;;
63286;SDS011;49410;55.708;37.522;2023-02-04T09:24:50;19.25;;;8.50;;
63286;SDS011;49410;55.708;37.522;2023-02-04T09:27:15;18.38;;;7.32;;
63286;SDS011;49410;55.708;37.522;2023-02-04T09:29:41;19.02;;;7.47;;
63286;SDS011;49410;55.708;37.522;2023-02-04T09:32:06;16.60;;;7.18;;
63286;SDS011;49410;55.708;37.522;2023-02-04T09:34:31;18.45;;;7.60;;
63286;SDS011;49410;55.708;37.522;2023-02-04T09:36:57;19.10;;;7.78;;
63286;SDS011;49410;55.708;37.522;2023-02-04T09:39:22;16.73;;;7.60;;
63286;SDS011;49410;55.708;37.522;2023-02-04T09:41:47;15.90;;;7.15;;
63286;SDS011;49410;55.708;37.522;2023-02-04T09:44:18;20.33;;;8.18;;
63286;SDS011;49410;55.708;37.522;2023-02-04T09:46:46;14.82;;;6.68;;
63286;SDS011;49410;55.708;37.522;2023-02-04T09:49:12;20.92;;;7.57;;
63286;SDS011;49410;55.708;37.522;2023-02-04T09:51:37;16.58;;;7.40;;
63286;SDS011;49410;55.708;37.522;2023-02-04T09:54:06;19.50;;;7.57;;
63286;SDS011;49410;55.708;37.522;2023-02-04T09:56:33;18.15;;;8.10;;
63286;SDS011;49410;55.708;37.522;2023-02-04T09:58:58;16.67;;;7.03;;
63286;SDS011;49410;55.708;37.522;2023-02-04T10:01:25;18.60;;;7.57;;
63286;SDS011;49410;55.708;37.522;2023-02-04T10:03:59;24.45;;;7.93;;
63286;SDS011;49410;55.708;37.522;2023-02-04T10:06:26;19.80;;;8.07;;
63286;SDS011;49410;55.708;37.522;2023-02-04T10:08:51;19.23;;;8.85;;
63286;SDS011;49410;55.708;37.522;2023-02-04T10:11:20;20.30;;;8.93;;
63286;SDS011;49410;55.708;37.522;2023-02-04T10:13:48;25.30;;;9.73;;
63286;SDS011;49410;55.708;37.522;2023-02-04T10:16:20;18.13;;;8.70;;
63286;SDS011;49410;55.708;37.522;2023-02-04T10:18:55;22.02;;;8.60;;
63286;SDS011;49410;55.708;37.522;2023-02-04T10:21:27;20.80;;;9.27;;
63286;SDS011;49410;55.708;37.522;2023-02-04T10:23:56;18.10;;;9.30;;
63286;SDS011;49410;55.708;37.522;2023-02-04T10:26:25;19.45;;;8.98;;
63286;SDS011;49410;55.708;37.522;2023-02-04T10:29:00;18.00;;;8.43;;
63286;SDS011;49410;55.708;37.522;2023-02-04T10:31:33;19.25;;;8.52;;
63286;SDS011;49410;55.708;37.522;2023-02-04T10:36:52;20.13;;;9.27;;
63286;SDS011;49410;55.708;37.522;2023-02-04T10:39:23;20.48;;;8.60;;
63286;SDS011;49410;55.708;37.522;2023-02-04T10:41:51;16.55;;;7.80;;
63286;SDS011;49410;55.708;37.522;2023-02-04T10:44:24;18.15;;;7.95;;
63286;SDS011;49410;55.708;37.522;2023-02-04T10:47:00;20.60;;;8.20;;
63286;SDS011;49410;55.708;37.522;2023-02-04T10:49:28;19.55;;;8.48;;
63286;SDS011;49410;55.708;37.522;2023-02-04T10:51:53;18.30;;;7.68;;
63286;SDS011;49410;55.708;37.522;2023-02-04T10:54:20;21.80;;;8.48;;
63286;SDS011;49410;55.708;37.522;2023-02-04T10:59:51;21.50;;;9.27;;
63286;SDS011;49410;55.708;37.522;2023-02-04T11:05:00;19.33;;;7.85;;
63286;SDS011;49410;55.708;37.522;2023-02-04T11:07:26;20.13;;;9.35;;
63286;SDS011;49410;55.708;37.522;2023-02-04T11:09:53;21.45;;;8.13;;
63286;SDS011;49410;55.708;37.522;2023-02-04T11:12:22;14.82;;;6.47;;
63286;SDS011;49410;55.708;37.522;2023-02-04T11:15:00;15.10;;;6.88;;
63286;SDS011;49410;55.708;37.522;2023-02-04T11:17:30;18.63;;;7.80;;
63286;SDS011;49410;55.708;37.522;2023-02-04T11:19:57;16.17;;;8.23;;
63286;SDS011;49410;55.708;37.522;2023-02-04T11:22:39;15.10;;;7.25;;
63286;SDS011;49410;55.708;37.522;2023-02-04T11:28:15;12.07;;;5.60;;
63286;SDS011;49410;55.708;37.522;2023-02-04T11:31:00;11.95;;;5.68;;
63286;SDS011;49410;55.708;37.522;2023-02-04T11:33:38;15.80;;;6.15;;
63286;SDS011;49410;55.708;37.522;2023-02-04T11:36:06;13.02;;;6.55;;
63286;SDS011;49410;55.708;37.522;2023-02-04T11:38:35;17.45;;;7.75;;
63286;SDS011;49410;55.708;37.522;2023-02-04T11:41:01;16.48;;;6.68;;
63286;SDS011;49410;55.708;37.522;2023-02-04T11:43:27;16.48;;;6.97;;
63286;SDS011;49410;55.708;37.522;2023-02-04T11:46:01;18.25;;;8.27;;
63286;SDS011;49410;55.708;37.522;2023-02-04T11:48:29;19.52;;;8.65;;
63286;SDS011;49410;55.708;37.522;2023-02-04T11:50:57;19.90;;;9.30;;
63286;SDS011;49410;55.708;37.522;2023-02-04T11:53:27;22.52;;;8.55;;
63286;SDS011;49410;55.708;37.522;2023-02-04T11:55:56;24.75;;;9.48;;
63286;SDS011;49410;55.708;37.522;2023-02-04T11:58:22;22.00;;;9.23;;
63286;SDS011;49410;55.708;37.522;2023-02-04T12:00:50;20.85;;;9.32;;
63286;SDS011;49410;55.708;37.522;2023-02-04T12:03:24;24.83;;;10.52;;
63286;SDS011;49410;55.708;37.522;2023-02-04T12:05:55;27.73;;;12.07;;
63286;SDS011;49410;55.708;37.522;2023-02-04T12:10:57;22.02;;;9.77;;
63286;SDS011;49410;55.708;37.522;2023-02-04T12:13:26;19.63;;;7.93;;
63286;SDS011;49410;55.708;37.522;2023-02-04T12:15:59;17.65;;;7.57;;
63286;SDS011;49410;55.708;37.522;2023-02-04T12:18:26;19.88;;;7.45;;
63286;SDS011;49410;55.708;37.522;2023-02-04T12:20:52;18.77;;;8.35;;
63286;SDS011;49410;55.708;37.522;2023-02-04T12:23:19;18.27;;;7.32;;
63286;SDS011;49410;55.708;37.522;2023-02-04T12:25:45;18.23;;;6.97;;
63286;SDS011;49410;55.708;37.522;2023-02-04T12:28:10;16.17;;;6.85;;
63286;SDS011;49410;55.708;37.522;2023-02-04T12:30:36;16.60;;;6.82;;
63286;SDS011;49410;55.708;37.522;2023-02-04T12:33:01;16.20;;;7.35;;
63286;SDS011;49410;55.708;37.522;2023-02-04T12:35:27;15.50;;;7.80;;
63286;SDS011;49410;55.708;37.522;2023-02-04T12:37:52;15.38;;;6.65;;
63286;SDS011;49410;55.708;37.522;2023-02-04T12:40:19;14.85;;;6.28;;
63286;SDS011;49410;55.708;37.522;2023-02-04T12:42:45;16.85;;;7.63;;
63286;SDS011;49410;55.708;37.522;2023-02-04T12:45:11;19.77;;;7.90;;
63286;SDS011;49410;55.708;37.522;2023-02-04T12:47:38;17.33;;;7.65;;
63286;SDS011;49410;55.708;37.522;2023-02-04T12:50:04;18.85;;;8.63;;
63286;SDS011;49410;55.708;37.522;2023-02-04T12:52:31;19.45;;;9.77;;
63286;SDS011;49410;55.708;37.522;2023-02-04T12:54:57;18.25;;;8.13;;
63286;SDS011;49410;55.708;37.522;2023-02-04T12:57:24;24.23;;;10.32;;
63286;SDS011;49410;55.708;37.522;2023-02-04T12:59:49;24.00;;;10.43;;
63286;SDS011;49410;55.708;37.522;2023-02-04T13:02:15;26.27;;;11.38;;
63286;SDS011;49410;55.708;37.522;2023-02-04T13:04:40;27.45;;;9.75;;
63286;SDS011;49410;55.708;37.522;2023-02-04T13:07:06;23.25;;;9.70;;
63286;SDS011;49410;55.708;37.522;2023-02-04T13:09:33;24.35;;;10.90;;
63286;SDS011;49410;55.708;37.522;2023-02-04T13:11:59;23.73;;;11.15;;
63286;SDS011;49410;55.708;37.522;2023-02-04T13:14:24;22.98;;;9.60;;
63286;SDS011;49410;55.708;37.522;2023-02-04T13:16:50;22.73;;;9.32;;
63286;SDS011;49410;55.708;37.522;2023-02-04T13:19:15;19.00;;;8.40;;
63286;SDS011;49410;55.708;37.522;2023-02-04T13:21:41;27.15;;;8.98;;
63286;SDS011;49410;55.708;37.522;2023-02-04T13:24:06;22.02;;;8.07;;
63286;SDS011;49410;55.708;37.522;2023-02-04T13:26:32;22.42;;;8.27;;
63286;SDS011;49410;55.708;37.522;2023-02-04T13:28:58;21.52;;;7.55;;
63286;SDS011;49410;55.708;37.522;2023-02-04T13:31:23;24.70;;;8.95;;
63286;SDS011;49410;55.708;37.522;2023-02-04T13:33:49;20.60;;;7.95;;
63286;SDS011;49410;55.708;37.522;2023-02-04T13:36:14;19.90;;;8.02;;
63286;SDS011;49410;55.708;37.522;2023-02-04T13:38:40;22.73;;;8.35;;
63286;SDS011;49410;55.708;37.522;2023-02-04T13:41:05;22.67;;;8.30;;
63286;SDS011;49410;55.708;37.522;2023-02-04T13:43:31;21.23;;;8.63;;
63286;SDS011;49410;55.708;37.522;2023-02-04T13:45:56;21.00;;;7.45;;
63286;SDS011;49410;55.708;37.522;2023-02-04T13:48:22;22.65;;;8.07;;
63286;SDS011;49410;55.708;37.522;2023-02-04T13:50:48;21.02;;;8.35;;
63286;SDS011;49410;55.708;37.522;2023-02-04T13:53:15;22.00;;;7.82;;
63286;SDS011;49410;55.708;37.522;2023-02-04T13:55:41;23.42;;;9.07;;
63286;SDS011;49410;55.708;37.522;2023-02-04T13:58:06;23.70;;;8.85;;
63286;SDS011;49410;55.708;37.522;2023-02-04T14:00:32;19.38;;;8.07;;
63286;SDS011;49410;55.708;37.522;2023-02-04T14:02:58;21.73;;;7.95;;
63286;SDS011;49410;55.708;37.522;2023-02-04T14:05:23;26.15;;;8.82;;
63286;SDS011;49410;55.708;37.522;2023-02-04T14:07:49;22.75;;;9.05;;
63286;SDS011;49410;55.708;37.522;2023-02-04T14:10:15;21.70;;;8.35;;
63286;SDS011;49410;55.708;37.522;2023-02-04T14:12:42;20.30;;;9.30;;
63286;SDS011;49410;55.708;37.522;2023-02-04T14:15:08;20.63;;;8.65;;
63286;SDS011;49410;55.708;37.522;2023-02-04T14:17:34;24.85;;;8.27;;
63286;SDS011;49410;55.708;37.522;2023-02-04T14:20:00;20.02;;;7.70;;
63286;SDS011;49410;55.708;37.522;2023-02-04T14:22:27;18.20;;;7.75;;
63286;SDS011;49410;55.708;37.522;2023-02-04T14:24:52;23.30;;;8.68;;
63286;SDS011;49410;55.708;37.522;2023-02-04T14:27:18;23.48;;;7.30;;
63286;SDS011;49410;55.708;37.522;2023-02-04T14:29:43;22.50;;;9.50;;